createdAt,value
2019-05-11T00:04:02.511Z,98178.00
2019-05-11T00:14:36.297Z,98152.00
2019-05-11T00:25:15.289Z,98152.00
2019-05-11T00:35:50.625Z,98166.00
2019-05-11T00:46:31.320Z,98164.00
2019-05-11T00:57:14.331Z,98144.00
2019-05-11T01:07:57.552Z,98156.00
2019-05-11T01:18:40.595Z,98129.00
2019-05-11T01:29:23.154Z,98110.00
2019-05-11T01:40:05.692Z,98114.00
2019-05-11T01:50:46.455Z,98137.00
2019-05-11T02:01:28.246Z,98129.00
2019-05-11T02:12:11.246Z,98161.00
2019-05-11T02:22:55.484Z,98156.00
2019-05-11T02:33:39.449Z,98161.00
2019-05-11T02:44:23.246Z,98155.00
2019-05-11T02:55:03.656Z,98147.00
2019-05-11T03:05:41.403Z,98116.00
2019-05-11T03:16:24.485Z,98118.00
2019-05-11T03:27:08.608Z,98116.00
2019-05-11T03:37:52.461Z,98112.00
2019-05-11T03:48:36.512Z,98127.00
2019-05-11T03:59:20.082Z,98120.00
2019-05-11T04:09:59.481Z,98144.00
2019-05-11T04:20:43.379Z,98140.00
2019-05-11T04:31:28.474Z,98139.00
2019-05-11T04:42:11.384Z,98129.00
2019-05-11T04:52:54.325Z,98129.00
2019-05-11T05:03:40.895Z,98197.00
2019-05-11T05:14:22.193Z,98196.00
2019-05-11T05:25:01.307Z,98219.00
2019-05-11T05:35:45.518Z,98220.00
2019-05-11T05:46:28.443Z,98209.00
2019-05-11T05:57:11.683Z,98225.00
2019-05-11T06:07:54.293Z,98231.00
2019-05-11T06:18:38.401Z,98217.00
2019-05-11T06:29:21.676Z,98207.00
2019-05-11T06:39:52.329Z,98205.00
2019-05-11T06:50:33.623Z,98212.00
2019-05-11T07:01:16.727Z,98231.00
2019-05-11T07:11:57.483Z,98233.00
2019-05-11T07:22:37.572Z,98229.00
2019-05-11T07:33:20.765Z,98254.00
2019-05-11T07:44:02.537Z,98252.00
2019-05-11T07:54:52.673Z,98256.00
2019-05-11T08:05:28.353Z,98251.00
2019-05-11T08:16:08.733Z,98281.00
2019-05-11T08:26:49.995Z,98264.00
2019-05-11T08:37:31.473Z,98260.00
2019-05-11T08:48:15.359Z,98255.00
2019-05-11T08:58:58.869Z,98261.00
2019-05-11T09:09:37.828Z,98285.00
2019-05-11T09:20:19.490Z,98310.00
2019-05-11T09:31:00.619Z,98303.00
2019-05-11T09:41:42.650Z,98351.00
2019-05-11T09:52:23.490Z,98387.00
2019-05-11T10:03:04.660Z,98383.00
2019-05-11T10:13:44.476Z,98405.00
2019-05-11T10:24:28.351Z,98426.00
2019-05-11T10:35:12.801Z,98405.00
2019-05-11T10:45:48.487Z,98415.00
2019-05-11T10:56:30.752Z,98404.00
2019-05-11T11:07:16.321Z,98414.00
2019-05-11T11:17:54.504Z,98379.00
2019-05-11T11:28:39.784Z,98343.00
2019-05-11T11:39:22.797Z,98381.00
2019-05-11T11:50:05.826Z,98408.00
2019-05-11T12:00:48.303Z,98361.00
2019-05-11T12:11:31.714Z,98359.00
2019-05-11T12:22:12.819Z,98382.00
2019-05-11T12:32:57.680Z,98394.00
2019-05-11T12:43:35.023Z,98416.00
2019-05-11T12:54:18.693Z,98400.00
2019-05-11T13:05:00.513Z,98341.00
2019-05-11T13:15:47.781Z,98279.00
2019-05-11T13:26:28.926Z,98234.00
2019-05-11T13:37:10.895Z,98079.00
2019-05-11T13:47:52.652Z,98011.00
2019-05-11T13:58:20.167Z,98032.00
2019-05-11T14:08:58.946Z,98143.00
2019-05-11T14:19:39.810Z,98178.00
2019-05-11T14:30:15.739Z,98243.00
2019-05-11T14:40:58.638Z,98273.00
2019-05-11T14:51:34.877Z,98274.00
2019-05-11T15:02:05.832Z,98255.00
2019-05-11T15:12:45.808Z,98314.00
2019-05-11T15:23:28.439Z,98245.00
2019-05-11T15:34:12.964Z,98202.00
2019-05-11T15:44:48.852Z,98265.00
2019-05-11T15:55:33.958Z,98241.00
2019-05-11T16:06:14.156Z,98260.00
2019-05-11T16:16:58.430Z,98284.00
2019-05-11T16:27:39.665Z,98285.00
2019-05-11T16:38:22.846Z,98371.00
2019-05-11T16:49:05.011Z,98424.00
2019-05-11T16:59:48.415Z,98462.00
2019-05-11T17:10:28.025Z,98500.00
2019-05-11T17:21:07.875Z,98555.00
2019-05-11T17:31:44.661Z,98559.00
2019-05-11T17:42:20.700Z,98581.00
2019-05-11T17:53:00.105Z,98640.00
2019-05-11T18:03:45.002Z,98677.00
2019-05-11T18:14:28.898Z,98697.00
2019-05-11T18:25:14.048Z,98709.00
2019-05-11T18:35:58.553Z,98765.00
2019-05-11T18:46:39.645Z,98814.00
2019-05-11T18:57:21.617Z,98899.00
2019-05-11T19:07:59.742Z,98951.00
2019-05-11T19:18:38.755Z,98999.00
2019-05-11T19:29:18.830Z,99012.00
2019-05-11T19:39:57.886Z,99067.00
2019-05-11T19:50:34.773Z,99112.00
2019-05-11T20:01:14.149Z,99170.00
2019-05-11T20:11:51.259Z,99238.00
2019-05-11T20:22:30.748Z,99244.00
2019-05-11T20:33:09.169Z,99287.00
2019-05-11T20:43:41.202Z,99351.00
2019-05-11T20:54:23.183Z,99416.00
2019-05-11T21:05:06.012Z,99457.00
2019-05-11T21:15:44.838Z,99461.00
2019-05-11T21:26:24.743Z,99462.00
2019-05-11T21:37:07.873Z,99507.00
2019-05-11T21:47:45.841Z,99546.00
2019-05-11T21:58:20.932Z,99585.00
2019-05-11T22:09:00.735Z,99636.00
2019-05-11T22:19:40.481Z,99688.00
2019-05-11T22:30:20.240Z,99746.00
2019-05-11T22:41:04.945Z,99793.00
2019-05-11T22:51:29.453Z,99825.00
2019-05-11T23:02:10.870Z,99880.00
2019-05-11T23:12:50.199Z,99928.00
2019-05-11T23:23:29.960Z,99965.00
2019-05-11T23:34:09.885Z,100001.00
2019-05-11T23:44:49.959Z,100042.00
2019-05-11T23:55:25.790Z,100087.00
